Time;durP1;ratioP1;P1;durP2;ratioP2;P2;SDS_P1;SDS_P2;PMS_P1;PMS_P2;Temp;Humidity;BMP_temperature;BMP_pressure;BME280_temperature;BME280_humidity;BME280_pressure;Samples;Min_cycle;Max_cycle;Signal;HPM_P1;HPM_P2
2021/12/02 00:00:11;;;;;;;5.28;2.00;;;;;;;7.42;60.62;99122.47;685332;28;1040;-82
2021/12/02 00:00:34;;;;;;;5.10;2.20;;;;;;;7.42;60.54;99104.28;685068;28;1966;-82
2021/12/02 00:01:35;;;;;;;5.80;2.28;;;;;;;7.49;60.06;99129.47;685217;28;1193;-82
2021/12/02 00:01:56;;;;;;;11.57;2.28;;;;;;;7.43;60.36;99119.00;685930;28;1624;-82
2021/12/02 00:02:18;;;;;;;10.70;2.50;;;;;;;7.47;59.96;99126.84;687872;28;968;-81
2021/12/02 00:02:39;;;;;;;10.13;2.42;;;;;;;7.47;60.67;99121.66;686727;28;1337;-81
2021/12/02 00:03:03;;;;;;;8.27;2.50;;;;;;;7.34;60.34;99125.81;682485;28;1188;-82
2021/12/02 00:03:24;;;;;;;6.70;2.50;;;;;;;7.35;60.85;99121.47;685415;28;933;-82
2021/12/02 00:03:46;;;;;;;7.45;2.70;;;;;;;7.32;61.19;99111.94;687297;28;1712;-81
2021/12/02 00:04:06;;;;;;;8.27;2.40;;;;;;;7.36;60.79;99124.09;685216;28;1009;-81
2021/12/02 00:04:29;;;;;;;7.90;2.40;;;;;;;7.38;60.74;99112.00;690555;28;1082;-82
2021/12/02 00:04:50;;;;;;;7.25;2.25;;;;;;;7.32;60.69;99117.13;687936;28;777;-81
2021/12/02 00:05:11;;;;;;;8.47;2.30;;;;;;;7.36;60.53;99113.72;690678;28;1027;-81
2021/12/02 00:05:31;;;;;;;10.60;2.30;;;;;;;7.28;60.72;99104.97;690512;28;1826;-82
2021/12/02 00:05:52;;;;;;;11.98;2.40;;;;;;;7.33;61.08;99118.88;687910;28;810;-83
2021/12/02 00:06:16;;;;;;;10.73;2.40;;;;;;;7.27;60.75;99111.84;689363;28;1381;-82
2021/12/02 00:06:38;;;;;;;8.07;2.10;;;;;;;7.27;61.05;99117.03;688855;28;1209;-82
2021/12/02 00:06:58;;;;;;;5.65;2.00;;;;;;;7.34;61.09;99120.63;690637;28;834;-82
2021/12/02 00:07:19;;;;;;;3.78;2.05;;;;;;;7.37;61.07;99109.41;682414;28;1255;-82
2021/12/02 00:07:39;;;;;;;4.15;2.20;;;;;;;7.36;61.04;99103.34;689447;28;1115;-82
2021/12/02 00:08:00;;;;;;;4.00;2.50;;;;;;;7.30;61.02;99124.00;690050;28;796;-82
2021/12/02 00:08:21;;;;;;;3.88;2.50;;;;;;;7.25;61.21;99110.13;685271;28;1101;-82
2021/12/02 00:08:42;;;;;;;6.65;2.60;;;;;;;7.26;61.15;99110.13;682545;28;1053;-82
2021/12/02 00:09:03;;;;;;;8.02;2.10;;;;;;;7.35;60.99;99109.38;684521;28;1263;-82
2021/12/02 00:09:23;;;;;;;10.82;2.70;;;;;;;7.34;61.06;99106.75;684065;28;1060;-81
2021/12/02 00:09:45;;;;;;;10.10;3.30;;;;;;;7.41;61.45;99121.56;685133;28;1167;-82
2021/12/02 00:10:12;;;;;;;9.40;3.30;;;;;;;7.37;60.93;99131.03;685214;28;1268;-82
2021/12/02 00:10:34;;;;;;;10.23;3.10;;;;;;;7.18;61.66;99129.88;687684;28;1463;-81
2021/12/02 00:10:55;;;;;;;10.75;2.40;;;;;;;7.25;61.53;99115.31;685524;28;929;-82
2021/12/02 00:11:16;;;;;;;9.30;2.13;;;;;;;7.33;61.46;99131.84;685595;28;1793;-81
2021/12/02 00:11:37;;;;;;;9.55;2.28;;;;;;;7.28;61.46;99125.72;687762;28;1100;-82
2021/12/02 00:11:58;;;;;;;9.43;2.20;;;;;;;7.26;61.18;99124.81;687930;28;720;-81
2021/12/02 00:12:18;;;;;;;8.30;1.93;;;;;;;7.24;61.17;99118.72;682296;28;977;-81
2021/12/02 00:12:39;;;;;;;5.15;1.70;;;;;;;7.20;60.86;99122.13;684280;28;1073;-82
2021/12/02 00:12:59;;;;;;;4.03;1.73;;;;;;;7.20;61.21;99115.22;688383;28;811;-82
2021/12/02 00:13:25;;;;;;;6.20;1.90;;;;;;;7.23;61.22;99116.97;686364;28;1623;-82
2021/12/02 00:14:14;;;;;;;4.50;2.00;;;;;;;7.23;61.19;99127.34;690037;28;1103;-82
2021/12/02 00:14:46;;;;;;;5.43;2.25;;;;;;;7.25;61.32;99136.91;684490;28;1013;-82
2021/12/02 00:15:10;;;;;;;7.60;2.05;;;;;;;7.20;61.42;99127.31;687806;28;1975;-82
2021/12/02 00:17:27;;;;;;;7.38;1.90;;;;;;;7.14;61.00;99117.72;688697;28;965;-82
2021/12/02 00:17:54;;;;;;;3.50;1.80;;;;;;;7.12;60.82;99112.50;689005;28;1435;-82
2021/12/02 00:21:03;;;;;;;6.00;2.10;;;;;;;7.06;60.91;99115.00;689544;28;1031;-82
2021/12/02 00:21:22;;;;;;;8.90;2.70;;;;;;;7.13;61.44;99129.81;691158;28;1492;-83
2021/12/02 00:21:46;;;;;;;7.82;2.50;;;;;;;7.03;61.09;99120.16;686999;28;1433;-82
2021/12/02 00:22:09;;;;;;;4.40;1.90;;;;;;;7.04;61.63;99129.69;682480;28;1372;-83
2021/12/02 00:22:40;;;;;;;5.43;2.10;;;;;;;6.97;61.42;99125.22;687564;28;1906;-82
2021/12/02 00:23:29;;;;;;;7.75;2.40;;;;;;;7.05;61.80;99140.94;687958;28;850;-82
2021/12/02 00:24:02;;;;;;;6.32;2.40;;;;;;;7.05;61.79;99138.34;690463;28;1347;-82
2021/12/02 00:24:24;;;;;;;10.48;2.60;;;;;;;7.00;62.05;99135.66;689929;28;1337;-82
2021/12/02 00:24:51;;;;;;;11.65;2.40;;;;;;;6.99;62.09;99144.28;687224;28;1261;-82
2021/12/02 00:25:12;;;;;;;9.55;2.20;;;;;;;6.87;62.40;99118.16;687678;28;1879;-82
2021/12/02 00:25:33;;;;;;;11.05;2.53;;;;;;;6.92;62.12;99132.06;688280;28;1198;-82
2021/12/02 00:25:58;;;;;;;6.75;2.45;;;;;;;6.91;62.15;99131.19;688598;28;1187;-82
2021/12/02 00:26:20;;;;;;;6.90;2.50;;;;;;;7.02;62.01;99141.75;693237;28;1127;-82
2021/12/02 00:26:41;;;;;;;6.78;2.30;;;;;;;6.95;61.85;99137.31;688714;28;1365;-82
2021/12/02 00:27:10;;;;;;;8.07;2.30;;;;;;;6.87;61.85;99131.97;685185;28;1069;-82
2021/12/02 00:27:34;;;;;;;7.07;2.40;;;;;;;6.87;62.58;99125.94;686729;28;1276;-82
2021/12/02 00:27:56;;;;;;;6.53;2.30;;;;;;;6.89;62.24;99127.72;685363;28;1358;-82
2021/12/02 00:28:17;;;;;;;7.55;2.70;;;;;;;6.93;62.13;99123.47;687595;28;1248;-82
2021/12/02 00:28:39;;;;;;;6.72;2.42;;;;;;;6.98;61.92;99132.16;685090;28;1093;-82
2021/12/02 00:29:02;;;;;;;6.20;2.30;;;;;;;6.94;62.08;99135.56;687791;28;874;-82
2021/12/02 00:29:23;;;;;;;6.20;2.30;;;;;;;6.96;62.20;99139.06;684243;28;1095;-82
2021/12/02 00:29:46;;;;;;;8.88;2.80;;;;;;;6.96;61.87;99139.06;687171;28;1222;-82
2021/12/02 00:30:07;;;;;;;9.43;2.75;;;;;;;6.91;62.03;99128.59;690602;28;1103;-82
2021/12/02 00:30:28;;;;;;;11.98;2.83;;;;;;;6.95;62.21;99142.50;690129;28;1243;-82
2021/12/02 00:30:49;;;;;;;11.90;2.70;;;;;;;6.96;62.43;99133.88;688367;28;1220;-82
2021/12/02 00:31:17;;;;;;;13.50;3.03;;;;;;;6.90;62.39;99128.56;687815;28;1181;-82
2021/12/02 00:31:39;;;;;;;10.95;3.42;;;;;;;6.87;62.35;99128.53;683514;28;1127;-82
2021/12/02 00:32:04;;;;;;;9.32;3.40;;;;;;;6.87;62.51;99134.56;687930;28;823;-82
2021/12/02 00:32:28;;;;;;;6.10;2.90;;;;;;;6.81;62.29;99135.34;687740;28;965;-82
2021/12/02 00:32:49;;;;;;;7.13;2.70;;;;;;;6.80;62.44;99131.03;687607;28;1337;-82
2021/12/02 00:33:11;;;;;;;8.90;3.10;;;;;;;6.84;62.26;99135.44;687662;28;1256;-82
2021/12/02 00:33:33;;;;;;;9.85;3.53;;;;;;;6.82;62.37;99125.88;687686;28;1131;-81
2021/12/02 00:33:57;;;;;;;8.20;3.55;;;;;;;6.93;62.56;99144.19;690615;28;844;-82
2021/12/02 00:34:20;;;;;;;10.77;3.92;;;;;;;6.84;62.85;99127.66;688016;28;1576;-82
2021/12/02 00:34:45;;;;;;;9.75;3.60;;;;;;;6.89;62.76;99140.69;690558;28;1155;-82
2021/12/02 00:35:06;;;;;;;9.10;3.50;;;;;;;6.83;62.38;99123.28;689931;28;1097;-82
2021/12/02 00:35:27;;;;;;;8.27;3.67;;;;;;;6.90;62.60;99131.16;687051;28;1000;-82
2021/12/02 00:35:48;;;;;;;7.37;3.30;;;;;;;6.90;62.65;99144.13;692132;28;1128;-82
2021/12/02 00:36:09;;;;;;;5.30;3.20;;;;;;;6.88;62.70;99140.66;684374;28;1689;-82
2021/12/02 00:36:31;;;;;;;5.00;2.97;;;;;;;6.88;62.41;99136.31;685119;28;1136;-82
2021/12/02 00:36:52;;;;;;;6.40;2.95;;;;;;;6.87;62.62;99128.53;685200;28;1150;-82
2021/12/02 00:37:13;;;;;;;9.35;2.95;;;;;;;6.91;62.51;99135.50;685702;28;1131;-82
2021/12/02 00:37:37;;;;;;;11.98;3.05;;;;;;;6.84;62.42;99126.75;692490;28;1102;-82
2021/12/02 00:38:00;;;;;;;10.25;3.10;;;;;;;6.85;62.75;99126.78;687852;28;1119;-82
2021/12/02 00:38:23;;;;;;;8.88;3.20;;;;;;;6.91;62.68;99135.50;682327;28;1931;-82
2021/12/02 00:38:46;;;;;;;6.60;2.90;;;;;;;6.91;62.90;99130.31;684404;28;1989;-80
2021/12/02 00:39:15;;;;;;;6.55;2.85;;;;;;;6.98;62.30;99137.34;685089;28;1344;-80
2021/12/02 00:39:36;;;;;;;7.05;3.08;;;;;;;6.92;62.72;99124.28;687534;28;1248;-80
2021/12/02 00:39:58;;;;;;;8.63;3.10;;;;;;;6.98;62.60;99142.53;687642;28;1508;-81
2021/12/02 00:40:18;;;;;;;7.60;3.08;;;;;;;6.96;62.12;99133.88;684952;28;1171;-80
2021/12/02 00:40:40;;;;;;;7.70;3.00;;;;;;;6.98;62.74;99147.72;691217;28;1919;-80
2021/12/02 00:41:02;;;;;;;7.82;3.28;;;;;;;6.99;62.79;99145.16;690542;28;920;-81
2021/12/02 00:41:26;;;;;;;7.82;3.20;;;;;;;6.96;62.62;99129.56;690545;28;1108;-80
2021/12/02 00:41:50;;;;;;;7.97;3.22;;;;;;;6.94;62.56;99131.25;687645;28;1080;-80
2021/12/02 00:42:11;;;;;;;7.85;3.20;;;;;;;6.96;62.51;99136.47;685127;28;1072;-80
2021/12/02 00:42:35;;;;;;;7.60;3.10;;;;;;;6.97;62.45;99133.91;687579;28;1262;-80
2021/12/02 00:42:58;;;;;;;6.18;2.80;;;;;;;6.94;62.28;99135.56;687189;28;1844;-79
2021/12/02 00:43:19;;;;;;;7.00;2.90;;;;;;;6.92;62.28;99137.25;684984;28;1182;-80
2021/12/02 00:43:40;;;;;;;8.35;3.38;;;;;;;6.90;62.75;99126.88;690068;28;1158;-80
2021/12/02 00:44:02;;;;;;;8.63;3.30;;;;;;;6.94;62.69;99141.59;687862;28;1115;-80
2021/12/02 00:44:22;;;;;;;8.90;3.25;;;;;;;6.90;62.74;99128.56;690536;28;1323;-80
2021/12/02 00:44:43;;;;;;;9.38;3.20;;;;;;;6.90;62.52;99132.06;685945;28;1237;-80
2021/12/02 00:45:04;;;;;;;10.68;3.58;;;;;;;6.97;62.79;99143.38;690221;28;1351;-80
2021/12/02 00:45:26;;;;;;;10.25;3.40;;;;;;;6.89;62.71;99139.78;693151;28;1086;-80
2021/12/02 00:45:47;;;;;;;8.25;3.17;;;;;;;6.79;62.75;99129.28;685053;28;1221;-79
2021/12/02 00:46:12;;;;;;;11.52;3.53;;;;;;;6.83;62.81;99144.03;684620;28;1305;-80
2021/12/02 00:46:34;;;;;;;10.07;3.30;;;;;;;6.86;62.54;99143.22;684919;28;1331;-80
2021/12/02 00:46:55;;;;;;;7.97;2.90;;;;;;;6.80;62.87;99136.19;685061;28;1347;-80
2021/12/02 00:47:16;;;;;;;6.38;2.85;;;;;;;6.83;63.11;99132.78;685033;28;1213;-80
2021/12/02 00:47:37;;;;;;;8.02;3.10;;;;;;;6.84;62.82;99139.72;686168;28;1136;-80
2021/12/02 00:48:00;;;;;;;9.18;3.40;;;;;;;6.81;62.86;99131.91;690622;28;801;-80
2021/12/02 00:48:20;;;;;;;9.65;3.22;;;;;;;6.81;63.11;99121.53;684986;28;1091;-80
2021/12/02 00:48:42;;;;;;;8.60;3.15;;;;;;;6.82;63.18;99136.25;686055;28;1198;-79
2021/12/02 00:49:07;;;;;;;8.95;3.00;;;;;;;6.89;63.04;99138.09;687676;28;1167;-80
2021/12/02 00:49:28;;;;;;;10.75;3.33;;;;;;;6.88;62.85;99140.66;689826;28;1414;-80
2021/12/02 00:49:49;;;;;;;10.35;3.05;;;;;;;6.81;62.82;99131.91;685028;28;1140;-80
2021/12/02 00:50:11;;;;;;;8.57;3.25;;;;;;;6.83;63.35;99133.66;684858;28;1498;-79
2021/12/02 00:50:32;;;;;;;8.13;3.07;;;;;;;6.85;63.22;99131.97;684918;28;1121;-80
2021/12/02 00:50:53;;;;;;;7.70;3.10;;;;;;;6.87;62.94;99133.72;685171;28;819;-80
2021/12/02 00:51:15;;;;;;;10.52;3.42;;;;;;;6.87;62.55;99133.72;687322;28;1129;-80
2021/12/02 00:51:36;;;;;;;11.65;3.50;;;;;;;6.89;62.82;99137.19;685118;28;1182;-81
2021/12/02 00:51:59;;;;;;;10.55;3.15;;;;;;;6.83;62.90;99133.66;688513;28;1738;-80
2021/12/02 00:52:20;;;;;;;8.52;2.80;;;;;;;6.88;62.74;99128.53;689246;28;1559;-80
2021/12/02 00:52:41;;;;;;;6.82;2.72;;;;;;;6.83;62.65;99125.00;690491;28;1051;-80
2021/12/02 00:53:05;;;;;;;7.13;2.50;;;;;;;6.85;62.73;99134.56;687721;28;1136;-80
2021/12/02 00:53:26;;;;;;;6.10;2.28;;;;;;;6.85;62.73;99129.38;688697;28;970;-80
2021/12/02 00:53:52;;;;;;;7.33;2.40;;;;;;;6.88;62.49;99135.47;687970;28;1277;-79
2021/12/02 00:54:13;;;;;;;8.15;2.53;;;;;;;6.80;62.80;99128.44;690416;28;1325;-80
2021/12/02 00:54:39;;;;;;;8.80;2.60;;;;;;;6.97;62.52;99145.97;687502;28;1267;-80
2021/12/02 00:55:02;;;;;;;10.02;2.75;;;;;;;6.89;62.17;99129.44;687691;28;875;-80
2021/12/02 00:55:25;;;;;;;8.88;3.10;;;;;;;6.88;62.34;99130.28;690454;28;1319;-80
2021/12/02 00:55:48;;;;;;;11.63;3.20;;;;;;;6.91;62.78;99138.09;690274;28;1411;-80
2021/12/02 00:56:10;;;;;;;11.73;3.00;;;;;;;6.88;62.77;99130.28;690586;28;1142;-80
2021/12/02 00:56:31;;;;;;;11.93;2.97;;;;;;;6.88;62.54;99136.31;690377;28;1158;-80
2021/12/02 00:56:53;;;;;;;9.27;3.45;;;;;;;6.96;62.56;99139.94;690652;28;776;-80
2021/12/02 00:57:14;;;;;;;10.65;3.60;;;;;;;6.97;62.22;99144.28;687682;28;1116;-80
2021/12/02 00:57:39;;;;;;;11.00;3.47;;;;;;;6.98;62.31;99139.94;684968;28;1033;-80
2021/12/02 00:58:01;;;;;;;9.52;2.90;;;;;;;7.01;62.46;99147.78;685201;28;1243;-80
2021/12/02 00:58:23;;;;;;;7.70;3.22;;;;;;;6.86;62.48;99127.66;688938;28;998;-80
2021/12/02 00:58:46;;;;;;;8.07;3.28;;;;;;;6.98;62.60;99139.94;688393;28;1221;-80
2021/12/02 00:59:08;;;;;;;8.90;3.20;;;;;;;6.98;62.50;99143.41;687815;28;1000;-80
2021/12/02 00:59:29;;;;;;;5.35;2.63;;;;;;;7.08;62.44;99154.81;689963;28;1226;-80
2021/12/02 00:59:52;;;;;;;5.35;2.70;;;;;;;6.97;62.41;99126.13;682831;28;1724;-80
2021/12/02 01:00:15;;;;;;;6.82;3.08;;;;;;;7.09;62.40;99142.72;686041;28;1331;-80
2021/12/02 01:00:35;;;;;;;7.22;3.20;;;;;;;7.02;62.23;99133.97;686181;28;1957;-80
2021/12/02 01:00:57;;;;;;;8.80;3.30;;;;;;;6.98;62.06;99127.88;687764;28;1141;-80
2021/12/02 01:01:21;;;;;;;10.48;3.30;;;;;;;7.10;62.24;99142.75;687872;28;1181;-80
2021/12/02 01:01:42;;;;;;;10.38;2.90;;;;;;;6.99;62.40;99123.53;684951;28;1113;-80
2021/12/02 01:02:03;;;;;;;10.95;2.65;;;;;;;7.05;62.13;99146.13;687737;28;1183;-81
2021/12/02 01:02:24;;;;;;;7.68;2.50;;;;;;;7.05;62.13;99148.72;690561;28;883;-80
2021/12/02 01:02:48;;;;;;;9.63;2.58;;;;;;;6.98;61.77;99147.72;690353;28;1342;-80
2021/12/02 01:03:09;;;;;;;10.75;2.55;;;;;;;6.89;62.18;99127.72;690936;28;1107;-80
2021/12/02 01:03:34;;;;;;;10.02;2.80;;;;;;;6.96;62.11;99139.06;688759;28;1708;-80
2021/12/02 01:03:58;;;;;;;6.95;2.80;;;;;;;6.95;62.20;99132.97;685187;28;831;-80
2021/12/02 01:04:23;;;;;;;12.68;2.67;;;;;;;6.99;62.37;99146.88;682443;28;920;-80
2021/12/02 01:04:44;;;;;;;13.48;2.40;;;;;;;6.96;62.36;99139.06;686731;28;1690;-80
2021/12/02 01:05:05;;;;;;;10.32;2.30;;;;;;;6.93;62.11;99139.88;690215;28;1561;-80
2021/12/02 01:05:26;;;;;;;9.77;2.80;;;;;;;6.98;61.84;99142.53;688897;28;1780;-80
2021/12/02 01:05:47;;;;;;;7.97;2.80;;;;;;;6.88;61.93;99140.66;687990;28;1891;-80
2021/12/02 01:06:08;;;;;;;8.03;2.70;;;;;;;6.87;62.02;99134.56;685143;28;1163;-79
2021/12/02 01:06:28;;;;;;;4.97;2.35;;;;;;;6.95;61.98;99152.88;686452;28;879;-80
2021/12/02 01:06:49;;;;;;;7.15;2.67;;;;;;;6.98;62.02;99142.53;687538;28;1244;-80
2021/12/02 01:07:10;;;;;;;8.18;2.70;;;;;;;7.02;61.65;99149.53;687914;28;1188;-80
2021/12/02 01:07:31;;;;;;;8.68;2.63;;;;;;;7.08;61.74;99149.63;687142;28;1141;-80
2021/12/02 01:07:53;;;;;;;10.65;3.00;;;;;;;6.93;61.81;99139.00;687815;28;1228;-80
2021/12/02 01:08:13;;;;;;;11.95;3.20;;;;;;;6.94;61.93;99140.75;685032;28;1853;-80
2021/12/02 01:08:36;;;;;;;12.50;3.27;;;;;;;6.90;61.81;99141.53;684883;28;1273;-80
2021/12/02 01:08:56;;;;;;;8.95;2.65;;;;;;;6.98;61.61;99152.91;688449;28;831;-80
2021/12/02 01:09:18;;;;;;;8.43;2.80;;;;;;;6.88;61.99;99143.25;687284;28;1262;-80
2021/12/02 01:09:39;;;;;;;7.85;2.67;;;;;;;6.98;61.99;99137.34;689385;28;1032;-79
2021/12/02 01:10:00;;;;;;;9.80;2.63;;;;;;;6.98;61.88;99142.53;690980;28;1600;-80
2021/12/02 01:10:21;;;;;;;8.50;2.40;;;;;;;7.03;61.44;99146.09;684956;28;1275;-80
2021/12/02 01:10:41;;;;;;;8.15;2.50;;;;;;;6.91;61.76;99135.50;689148;28;1440;-80
2021/12/02 01:11:05;;;;;;;5.03;2.63;;;;;;;6.94;61.87;99146.78;687756;28;1004;-80
2021/12/02 01:11:25;;;;;;;5.70;2.65;;;;;;;6.99;61.15;99155.53;687938;28;1111;-79
2021/12/02 01:11:48;;;;;;;8.00;2.63;;;;;;;6.97;61.52;99141.69;688425;28;1925;-80
2021/12/02 01:12:09;;;;;;;8.18;2.40;;;;;;;7.01;61.32;99142.59;687901;28;968;-80
2021/12/02 01:12:30;;;;;;;7.85;2.75;;;;;;;7.02;61.26;99139.16;686690;28;1080;-80
2021/12/02 01:12:51;;;;;;;8.20;3.00;;;;;;;6.96;61.63;99144.25;686727;28;878;-80
2021/12/02 01:13:12;;;;;;;7.75;3.10;;;;;;;6.94;61.55;99135.56;690558;28;1099;-80
2021/12/02 01:13:33;;;;;;;7.72;3.00;;;;;;;6.94;61.48;99135.56;685797;28;1889;-80
2021/12/02 01:13:54;;;;;;;7.05;2.88;;;;;;;6.91;61.26;99128.59;687827;28;1117;-80
2021/12/02 01:14:14;;;;;;;12.30;3.15;;;;;;;6.93;61.22;99131.25;687794;28;1525;-80
2021/12/02 01:14:35;;;;;;;13.35;2.90;;;;;;;6.94;61.26;99135.56;686527;28;1413;-80
2021/12/02 01:14:56;;;;;;;11.47;2.70;;;;;;;6.97;61.13;99141.69;685167;28;1200;-80
2021/12/02 01:15:16;;;;;;;7.60;2.63;;;;;;;6.97;61.48;99133.91;682384;29;1107;-80
2021/12/02 01:15:37;;;;;;;11.77;3.50;;;;;;;6.99;61.30;99139.09;686135;28;1202;-80
2021/12/02 01:15:58;;;;;;;10.52;3.53;;;;;;;6.97;60.99;99135.59;687935;28;830;-80
2021/12/02 01:16:20;;;;;;;12.75;3.80;;;;;;;7.04;61.02;99139.16;684645;28;1187;-80
2021/12/02 01:16:41;;;;;;;10.70;3.72;;;;;;;7.01;60.89;99136.53;683669;28;1255;-80
2021/12/02 01:17:01;;;;;;;12.97;4.27;;;;;;;6.98;61.32;99140.84;682932;28;1062;-80
2021/12/02 01:17:31;;;;;;;13.63;4.10;;;;;;;6.98;60.92;99132.16;683091;28;741;-80
2021/12/02 01:17:53;;;;;;;13.45;3.65;;;;;;;7.02;61.27;99149.53;684300;28;1127;-79
2021/12/02 01:18:14;;;;;;;13.63;3.47;;;;;;;7.02;61.21;99138.28;687733;28;1154;-79
2021/12/02 01:18:35;;;;;;;11.93;3.25;;;;;;;7.05;61.05;99140.94;690252;28;1358;-80
2021/12/02 01:18:56;;;;;;;9.43;3.08;;;;;;;6.96;61.12;99139.94;689634;28;1257;-80
2021/12/02 01:19:16;;;;;;;6.45;2.60;;;;;;;6.93;61.15;99136.41;690038;28;1262;-79
2021/12/02 01:19:37;;;;;;;8.02;2.90;;;;;;;7.01;61.53;99158.16;688329;28;1752;-80
2021/12/02 01:19:57;;;;;;;7.83;2.70;;;;;;;6.93;61.45;99139.00;690592;28;1225;-80
2021/12/02 01:20:18;;;;;;;8.50;3.10;;;;;;;6.92;61.24;99147.63;693162;28;1228;-80
2021/12/02 01:20:41;;;;;;;8.75;2.80;;;;;;;6.84;61.39;99144.91;690261;28;1918;-80
2021/12/02 01:21:03;;;;;;;10.10;3.13;;;;;;;6.94;61.50;99161.50;688758;28;1552;-79
2021/12/02 01:21:26;;;;;;;9.93;2.70;;;;;;;6.90;61.41;99150.19;690396;28;1164;-80
2021/12/02 01:21:48;;;;;;;7.90;2.78;;;;;;;6.97;61.08;99153.75;685255;28;1386;-80
2021/12/02 01:22:10;;;;;;;6.00;2.60;;;;;;;7.03;61.01;99161.66;682000;28;1262;-80
2021/12/02 01:22:34;;;;;;;6.85;2.88;;;;;;;7.04;60.78;99152.13;682246;28;1066;-79
2021/12/02 01:22:58;;;;;;;4.35;2.38;;;;;;;6.91;60.83;99151.06;682421;28;851;-80
2021/12/02 01:23:21;;;;;;;5.82;2.10;;;;;;;6.94;61.29;99154.56;685023;28;1119;-79
2021/12/02 01:23:43;;;;;;;7.60;2.20;;;;;;;6.99;60.79;99160.72;687741;28;1060;-80
2021/12/02 01:24:06;;;;;;;8.75;2.20;;;;;;;7.08;60.79;99162.59;690382;28;1241;-80
2021/12/02 01:24:28;;;;;;;7.40;2.30;;;;;;;6.97;60.69;99157.25;690335;28;1012;-79
2021/12/02 01:24:50;;;;;;;8.00;2.00;;;;;;;6.94;60.71;99153.72;690130;28;1419;-80
2021/12/02 01:25:12;;;;;;;6.93;2.30;;;;;;;7.03;60.57;99159.06;690593;28;1075;-80
2021/12/02 01:25:34;;;;;;;8.90;2.50;;;;;;;7.01;60.74;99147.78;689466;28;1249;-80
2021/12/02 01:25:59;;;;;;;7.88;2.50;;;;;;;7.03;60.33;99151.28;682438;28;965;-79
2021/12/02 01:26:20;;;;;;;7.47;2.10;;;;;;;7.08;60.31;99143.56;685056;28;1349;-80
2021/12/02 01:26:48;;;;;;;7.40;2.30;;;;;;;7.04;60.70;99155.59;686466;28;1206;-80
2021/12/02 01:27:10;;;;;;;7.90;2.40;;;;;;;7.05;60.03;99154.75;690403;28;1019;-79
2021/12/02 01:27:32;;;;;;;6.53;2.50;;;;;;;7.07;60.41;99159.97;684666;28;1886;-80
2021/12/02 01:27:55;;;;;;;5.68;2.30;;;;;;;7.07;60.20;99158.25;687836;28;898;-80
2021/12/02 01:28:17;;;;;;;7.53;2.53;;;;;;;7.03;60.38;99150.38;687649;28;1059;-80
2021/12/02 01:28:38;;;;;;;8.70;2.60;;;;;;;7.07;60.24;99157.38;690426;28;1131;-80
2021/12/02 01:28:59;;;;;;;7.45;2.60;;;;;;;7.03;60.00;99145.19;687735;28;815;-80
2021/12/02 01:29:24;;;;;;;4.30;2.40;;;;;;;7.11;60.00;99161.75;692467;28;1122;-79
2021/12/02 01:29:45;;;;;;;4.40;2.20;;;;;;;7.06;60.34;99151.31;688117;28;1310;-80
2021/12/02 01:30:07;;;;;;;9.00;2.15;;;;;;;7.03;60.29;99150.38;685574;28;1172;-79
2021/12/02 01:30:29;;;;;;;9.88;2.08;;;;;;;7.05;59.89;99146.97;685190;28;1779;-80
2021/12/02 01:30:53;;;;;;;8.15;2.22;;;;;;;7.07;59.92;99157.38;688288;28;2080;-79
2021/12/02 01:31:14;;;;;;;7.63;2.20;;;;;;;7.01;60.23;99158.16;687818;28;1060;-80
2021/12/02 01:31:36;;;;;;;6.75;2.42;;;;;;;7.06;60.43;99166.03;681812;29;1251;-80
2021/12/02 01:32:03;;;;;;;11.52;2.90;;;;;;;7.08;59.99;99148.75;685193;28;1193;-79
2021/12/02 01:32:24;;;;;;;10.85;3.20;;;;;;;7.07;60.04;99158.25;692972;28;910;-79
2021/12/02 01:32:48;;;;;;;9.57;2.78;;;;;;;7.10;59.81;99153.13;691082;28;1130;-79
2021/12/02 01:33:08;;;;;;;8.38;2.70;;;;;;;7.13;60.15;99160.09;684717;28;1204;-79
2021/12/02 01:33:29;;;;;;;6.75;2.30;;;;;;;7.03;60.29;99150.38;688055;28;960;-79
2021/12/02 01:33:51;;;;;;;8.15;2.40;;;;;;;7.11;60.04;99165.25;687815;28;776;-80
2021/12/02 01:34:11;;;;;;;7.38;2.15;;;;;;;7.16;59.94;99161.84;690353;28;2223;-80
2021/12/02 01:34:32;;;;;;;7.83;2.43;;;;;;;6.96;60.30;99157.22;684513;28;1236;-80
2021/12/02 01:34:57;;;;;;;6.75;2.30;;;;;;;6.89;60.09;99152.75;685223;28;812;-80
2021/12/02 01:35:24;;;;;;;6.38;2.15;;;;;;;6.94;60.12;99170.13;684813;28;1548;-79
2021/12/02 01:35:48;;;;;;;4.55;2.10;;;;;;;6.87;60.37;99159.66;684646;28;2131;-79
2021/12/02 01:36:10;;;;;;;6.43;2.20;;;;;;;6.81;60.94;99145.72;685132;28;1060;-80
2021/12/02 01:36:40;;;;;;;6.82;2.47;;;;;;;6.88;60.36;99161.38;682134;28;1391;-79
2021/12/02 01:37:01;;;;;;;7.68;2.70;;;;;;;6.84;60.91;99163.94;687700;28;1189;-80
2021/12/02 01:37:23;;;;;;;6.50;2.85;;;;;;;6.78;60.66;99144.78;689693;28;953;-80
2021/12/02 01:39:19;;;;;;;4.00;2.30;;;;;;;6.56;61.52;99159.94;695307;28;1087;-79
2021/12/02 01:39:40;;;;;;;3.00;2.30;;;;;;;6.58;61.70;99161.72;692450;28;1227;-80
2021/12/02 01:40:01;;;;;;;4.32;2.35;;;;;;;6.53;61.36;99176.31;691026;28;1160;-79
2021/12/02 01:40:22;;;;;;;4.40;2.20;;;;;;;6.55;61.47;99176.31;688025;28;934;-79
2021/12/02 01:40:44;;;;;;;7.32;2.55;;;;;;;6.47;61.54;99165.84;688863;28;1920;-80
2021/12/02 01:41:05;;;;;;;7.57;2.70;;;;;;;6.48;61.88;99172.75;688093;28;1021;-79
2021/12/02 01:41:26;;;;;;;6.40;2.70;;;;;;;6.46;61.46;99164.09;682851;29;1382;-80
2021/12/02 01:41:49;;;;;;;6.23;2.33;;;;;;;6.60;61.31;99181.59;688861;28;1056;-79
2021/12/02 01:42:22;;;;;;;5.70;2.40;;;;;;;6.49;61.87;99169.31;686637;28;978;-79
2021/12/02 01:42:46;;;;;;;6.18;2.30;;;;;;;6.51;61.75;99166.75;685388;28;1216;-80
2021/12/02 01:43:08;;;;;;;7.32;2.30;;;;;;;6.49;61.78;99174.50;682220;28;1126;-79
2021/12/02 01:43:37;;;;;;;5.60;2.25;;;;;;;6.55;61.99;99164.25;684900;28;934;-79
2021/12/02 01:43:58;;;;;;;6.40;2.13;;;;;;;6.50;61.58;99171.06;690944;28;1305;-80
2021/12/02 01:44:20;;;;;;;5.80;2.17;;;;;;;6.48;61.81;99157.22;690929;28;900;-80
2021/12/02 01:44:41;;;;;;;5.18;2.40;;;;;;;6.53;61.83;99165.94;692353;28;1143;-79
2021/12/02 01:45:03;;;;;;;7.28;2.50;;;;;;;6.61;61.51;99172.97;690782;28;1111;-79
2021/12/02 01:45:27;;;;;;;7.03;2.38;;;;;;;6.52;61.65;99163.31;690346;28;1928;-79
2021/12/02 01:45:48;;;;;;;7.35;2.30;;;;;;;6.49;61.28;99163.25;690713;28;2012;-79
2021/12/02 01:46:08;;;;;;;8.52;2.50;;;;;;;6.48;61.85;99164.97;685539;28;1165;-79
2021/12/02 01:46:35;;;;;;;9.57;2.30;;;;;;;6.47;61.63;99155.47;688108;28;1275;-79
2021/12/02 01:46:58;;;;;;;8.13;2.05;;;;;;;6.54;61.28;99157.31;688244;28;905;-79
2021/12/02 01:47:23;;;;;;;8.80;2.00;;;;;;;6.61;61.31;99172.97;688351;28;1016;-80
2021/12/02 01:47:48;;;;;;;8.75;2.10;;;;;;;6.50;60.78;99157.25;687963;28;1714;-79
2021/12/02 01:48:10;;;;;;;7.70;2.30;;;;;;;6.57;61.00;99172.06;688275;28;1009;-79
2021/12/02 01:48:31;;;;;;;8.85;2.42;;;;;;;6.52;60.88;99164.19;690535;28;2207;-79
2021/12/02 01:49:05;;;;;;;10.25;2.40;;;;;;;6.60;61.39;99176.41;690909;28;1288;-80
2021/12/02 01:49:32;;;;;;;6.65;2.25;;;;;;;6.74;60.68;99171.53;687749;28;915;-79
2021/12/02 01:49:58;;;;;;;4.90;2.20;;;;;;;6.80;60.61;99169.91;688256;28;784;-79
2021/12/02 01:50:22;;;;;;;4.50;2.05;;;;;;;6.78;60.40;99153.47;695473;28;1059;-79
2021/12/02 01:50:43;;;;;;;4.30;2.05;;;;;;;6.83;60.25;99154.41;689878;28;1122;-80
2021/12/02 01:51:07;;;;;;;4.40;2.10;;;;;;;6.82;60.56;99150.06;685431;28;1270;-79
2021/12/02 01:51:28;;;;;;;4.63;2.60;;;;;;;6.92;60.20;99171.84;685527;28;1345;-80
2021/12/02 01:52:39;;;;;;;3.03;2.50;;;;;;;6.91;60.61;99156.25;689633;28;1201;-79
2021/12/02 01:53:38;;;;;;;7.47;2.20;;;;;;;6.89;59.75;99168.31;688389;28;1261;-80
2021/12/02 01:54:19;;;;;;;6.93;2.58;;;;;;;6.67;60.50;99148.06;690802;28;893;-79
2021/12/02 01:54:45;;;;;;;8.70;2.60;;;;;;;6.80;60.48;99164.72;692245;28;1060;-79
2021/12/02 01:55:12;;;;;;;7.72;2.26;;;;;;;6.79;60.18;99152.59;687959;28;1644;-79
2021/12/02 01:55:35;;;;;;;4.50;1.88;;;;;;;6.70;60.47;99157.59;685349;28;1080;-79
2021/12/02 01:56:10;;;;;;;5.53;1.73;;;;;;;6.68;60.55;99154.09;685730;28;902;-79
2021/12/02 01:56:36;;;;;;;7.00;2.10;;;;;;;6.72;60.39;99163.72;685237;28;1358;-79
2021/12/02 01:57:07;;;;;;;7.12;2.10;;;;;;;6.69;60.20;99155.88;685539;28;813;-79
2021/12/02 01:57:30;;;;;;;7.80;2.05;;;;;;;6.71;60.14;99156.78;687027;28;945;-79
2021/12/02 01:58:00;;;;;;;6.50;2.00;;;;;;;6.70;60.21;99152.41;682750;28;840;-80
2021/12/02 01:58:26;;;;;;;6.68;2.30;;;;;;;6.70;59.92;99152.41;691092;28;1054;-79
2021/12/02 01:58:51;;;;;;;7.13;2.65;;;;;;;6.66;60.10;99150.59;691111;28;1123;-79
2021/12/02 01:59:28;;;;;;;7.63;2.28;;;;;;;6.55;60.80;99165.97;693396;28;1228;-80
2021/12/02 01:59:57;;;;;;;6.32;2.05;;;;;;;6.64;60.54;99166.13;685755;28;1040;-79